Woodleaf, California
Current Conditions -  °F | °C
As of 6:00 PM on Monday 24 Nov 2014 (Local Time) from KGOO Reporting Station
Clear Clear  
Wind Chill: 50°   Ceiling: Unl
Heat Index: 50°   Visibility: 10mi
Dew Point: 36°   Wind: 5mph
Humidity: 58%   Direction: 340°NNW
Pressure: 30.38"   Gusts: NA
Location:  39.4476°N, 121.176°W
Report Text: KGOO 250200Z AUTO 34004KT 10SM CLR 10/02 A3038 RMK AO1
Loading
Personal Weather Stations






























Interactive Weather Map New forecast layout! Learn more

10-Day Weather Forecast

Advertisements
Track Severe Weather on mobile